createdAt,value
2019-05-21T00:01:37.136Z,16.8
2019-05-21T00:06:42.113Z,16.7
2019-05-21T00:11:47.338Z,16.7
2019-05-21T00:16:52.183Z,16.7
2019-05-21T00:22:02.167Z,16.6
2019-05-21T00:27:12.125Z,16.6
2019-05-21T00:32:17.108Z,16.7
2019-05-21T00:37:22.090Z,16.6
2019-05-21T00:42:27.163Z,16.6
2019-05-21T00:47:32.125Z,16.6
2019-05-21T00:57:32.347Z,16.6
2019-05-21T01:02:37.434Z,16.5
2019-05-21T01:07:42.474Z,16.4
2019-05-21T01:12:52.614Z,16.4
2019-05-21T01:18:02.356Z,16.4
2019-05-21T01:23:07.376Z,16.4
2019-05-21T01:28:12.385Z,16.4
2019-05-21T01:33:17.351Z,16.5
2019-05-21T01:38:22.366Z,16.2
2019-05-21T01:43:32.342Z,16.2
2019-05-21T01:48:42.376Z,16.2
2019-05-21T01:53:47.390Z,16.2
2019-05-21T01:58:52.393Z,16.3
2019-05-21T02:03:57.327Z,16.5
2019-05-21T02:09:02.369Z,16.4
2019-05-21T02:14:12.348Z,16.2
2019-05-21T02:19:22.328Z,16
2019-05-21T02:24:27.356Z,16
2019-05-21T02:29:32.350Z,16
2019-05-21T02:34:37.356Z,16
2019-05-21T02:39:42.326Z,15.9
2019-05-21T02:44:54.104Z,15.8
2019-05-21T02:50:02.347Z,15.7
2019-05-21T02:55:07.319Z,15.6
2019-05-21T03:00:12.375Z,15.6
2019-05-21T03:05:17.301Z,15.5
2019-05-21T03:10:22.343Z,15.6
2019-05-21T03:15:32.307Z,15.5
2019-05-21T03:20:42.550Z,15.5
2019-05-21T03:25:47.402Z,15.6
2019-05-21T03:30:52.354Z,15.6
2019-05-21T03:35:57.328Z,15.8
2019-05-21T03:41:02.336Z,16
2019-05-21T03:46:07.345Z,16.1
2019-05-21T03:51:12.301Z,16
2019-05-21T03:56:17.368Z,16.2
2019-05-21T04:01:22.394Z,16.4
2019-05-21T04:06:28.902Z,16.5
2019-05-21T04:11:32.293Z,16.6
2019-05-21T04:16:37.282Z,16.7
2019-05-21T04:26:37.547Z,17.2
2019-05-21T04:31:42.506Z,17.5
2019-05-21T04:36:47.564Z,17.6
2019-05-21T04:41:57.563Z,18.2
2019-05-21T04:47:07.538Z,18.3
2019-05-21T04:52:12.521Z,18.5
2019-05-21T04:57:17.517Z,18.4
2019-05-21T05:02:22.501Z,18.1
2019-05-21T05:07:28.905Z,18
2019-05-21T05:12:37.478Z,18.7
2019-05-21T05:17:47.502Z,19.3
2019-05-21T05:22:52.521Z,19.1
2019-05-21T05:27:57.691Z,19.7
2019-05-21T05:33:02.483Z,19.3
2019-05-21T05:38:07.491Z,19.1
2019-05-21T05:43:20.466Z,19.4
2019-05-21T05:48:27.466Z,20.1
2019-05-21T05:53:32.438Z,19.7
2019-05-21T05:58:37.484Z,20.1
2019-05-21T06:03:42.531Z,19.9
2019-05-21T06:08:47.481Z,20.4
2019-05-21T06:13:57.451Z,20.9
2019-05-21T06:19:07.490Z,20.5
2019-05-21T06:24:13.555Z,20.8
2019-05-21T06:29:17.469Z,22
2019-05-21T06:34:22.491Z,21.9
2019-05-21T06:39:27.457Z,22.4
2019-05-21T06:44:32.448Z,22.8
2019-05-21T06:49:42.449Z,23.8
2019-05-21T06:54:52.512Z,23.8
2019-05-21T06:59:57.430Z,22.9
2019-05-21T07:05:02.502Z,22.9
2019-05-21T07:10:07.444Z,23
2019-05-21T07:15:12.455Z,22.6
2019-05-21T07:20:22.487Z,23.9
2019-05-21T07:25:32.472Z,24.9
2019-05-21T07:30:37.707Z,24.3
2019-05-21T07:35:42.403Z,23.8
2019-05-21T07:40:47.448Z,23.3
2019-05-21T07:45:52.492Z,23.5
2019-05-21T07:55:52.537Z,23.2
2019-05-21T08:01:00.913Z,22.3
2019-05-21T08:06:02.660Z,23.2
2019-05-21T08:11:12.608Z,24.7
2019-05-21T08:16:22.612Z,26
2019-05-21T08:21:27.617Z,26.2
2019-05-21T08:26:32.597Z,25.9
2019-05-21T08:31:37.660Z,23.7
2019-05-21T08:41:37.804Z,23.6
2019-05-21T08:46:42.973Z,24.8
2019-05-21T08:51:47.856Z,24.9
2019-05-21T08:56:57.821Z,25.2
2019-05-21T09:07:02.993Z,26.3
2019-05-21T09:12:08.013Z,26.2
2019-05-21T09:17:12.988Z,25.6
2019-05-21T09:22:23.008Z,26
2019-05-21T09:27:33.075Z,25.9
2019-05-21T09:32:38.058Z,26.3
2019-05-21T09:37:43.211Z,26
2019-05-21T09:42:47.983Z,25.6
2019-05-21T09:47:52.976Z,24.9
2019-05-21T09:53:02.995Z,26.3
2019-05-21T09:58:13.039Z,25
2019-05-21T10:03:17.969Z,26.3
2019-05-21T10:08:23.010Z,27.2
2019-05-21T10:13:27.963Z,26.5
2019-05-21T10:18:32.944Z,26.4
2019-05-21T10:23:38.016Z,27
2019-05-21T10:28:48.041Z,27.5
2019-05-21T10:33:58.055Z,27.1
2019-05-21T10:39:02.991Z,27.8
2019-05-21T10:44:08.047Z,25.9
2019-05-21T10:49:13.060Z,26.2
2019-05-21T10:54:17.959Z,27.4
2019-05-21T10:59:28.040Z,27.7
2019-05-21T11:04:37.968Z,27.5
2019-05-21T11:09:43.732Z,27.8
2019-05-21T11:14:48.007Z,28.3
2019-05-21T11:19:52.989Z,28.1
2019-05-21T11:24:57.955Z,26.8
2019-05-21T11:30:07.956Z,26.2
2019-05-21T11:35:17.943Z,26.8
2019-05-21T11:40:22.974Z,27
2019-05-21T11:45:32.024Z,27.3
2019-05-21T11:50:33.036Z,26.6
2019-05-21T11:55:37.919Z,27
2019-05-21T12:00:47.981Z,27.6
2019-05-21T12:05:57.962Z,27.9
2019-05-21T12:11:02.924Z,27.4
2019-05-21T12:16:07.941Z,28.1
2019-05-21T12:21:12.965Z,28.6
2019-05-21T12:26:17.987Z,27.7
2019-05-21T12:36:18.019Z,25.8
2019-05-21T12:41:23.055Z,25
2019-05-21T12:46:28.085Z,24.6
2019-05-21T12:51:38.504Z,24.6
2019-05-21T12:56:48.144Z,25.1
2019-05-21T13:01:53.059Z,25.4
2019-05-21T13:06:58.065Z,25.5
2019-05-21T13:12:03.062Z,26
2019-05-21T13:17:08.022Z,26.7
2019-05-21T13:22:18.065Z,27.2
2019-05-21T13:32:24.350Z,27.7
2019-05-21T13:37:29.360Z,28.3
2019-05-21T13:42:34.335Z,28.4
2019-05-21T13:47:44.580Z,29.2
2019-05-21T13:52:54.363Z,29.6
2019-05-21T13:57:59.320Z,29.5
2019-05-21T14:03:04.315Z,28.7
2019-05-21T14:08:09.379Z,28.7
2019-05-21T14:13:19.381Z,27.9
2019-05-21T14:18:29.308Z,27.4
2019-05-21T14:23:34.375Z,27
2019-05-21T14:28:39.329Z,26.1
2019-05-21T14:33:46.732Z,25.9
2019-05-21T14:38:49.327Z,25.5
2019-05-21T14:43:59.368Z,25.1
2019-05-21T14:49:09.404Z,25.1
2019-05-21T14:59:09.511Z,25
2019-05-21T15:04:14.626Z,25.2
2019-05-21T15:15:24.328Z,25.5
2019-05-21T15:20:25.114Z,26
2019-05-21T15:30:25.313Z,26.5
2019-05-21T15:35:30.299Z,26
2019-05-21T15:40:35.288Z,25.9
2019-05-21T15:45:45.280Z,25.1
2019-05-21T15:50:55.270Z,23.9
2019-05-21T15:56:00.490Z,23.2
2019-05-21T16:01:05.332Z,23.1
2019-05-21T16:06:10.333Z,23
2019-05-21T16:11:27.771Z,22.8
2019-05-21T16:12:20.592Z,22.8
2019-05-21T16:16:25.273Z,22.5
2019-05-21T16:21:35.245Z,22.4
2019-05-21T16:26:40.289Z,22.7
2019-05-21T16:31:45.270Z,22.5
2019-05-21T16:36:50.527Z,22.4
2019-05-21T16:41:55.334Z,22.2
2019-05-21T16:47:00.265Z,22.3
2019-05-21T16:52:10.314Z,22.6
2019-05-21T16:57:20.283Z,22.6
2019-05-21T17:02:25.605Z,22.7
2019-05-21T17:07:30.265Z,22.6
2019-05-21T17:17:30.440Z,22.6
2019-05-21T17:22:35.531Z,22.8
2019-05-21T17:27:40.510Z,22.8
2019-05-21T17:32:50.481Z,22.9
2019-05-21T17:38:00.557Z,22.6
2019-05-21T17:43:05.527Z,22.8
2019-05-21T17:48:10.559Z,22.5
2019-05-21T17:53:15.457Z,22.4
2019-05-21T17:58:20.439Z,22.5
2019-05-21T18:03:30.480Z,22.6
2019-05-21T18:08:40.521Z,22
2019-05-21T18:13:47.963Z,22.1
2019-05-21T18:18:50.514Z,22.1
2019-05-21T18:23:55.463Z,21.6
2019-05-21T18:29:00.630Z,21.5
2019-05-21T18:34:10.472Z,21.5
2019-05-21T18:44:15.719Z,21.4
2019-05-21T18:49:20.752Z,21.1
2019-05-21T18:54:25.706Z,20.9
2019-05-21T18:59:35.728Z,20.9
2019-05-21T19:04:45.677Z,20.7
2019-05-21T19:09:50.663Z,20.6
2019-05-21T19:14:55.693Z,20.6
2019-05-21T19:20:00.654Z,20.5
2019-05-21T19:25:05.671Z,20.5
2019-05-21T19:30:15.647Z,20.4
2019-05-21T19:35:25.667Z,20.2
2019-05-21T19:40:30.765Z,20.1
2019-05-21T19:45:35.690Z,20.1
2019-05-21T19:50:40.727Z,20
2019-05-21T19:55:45.747Z,20
2019-05-21T20:00:55.642Z,20
2019-05-21T20:06:05.647Z,19.8
2019-05-21T20:11:10.704Z,19.7
2019-05-21T20:16:15.699Z,19.8
2019-05-21T20:21:20.896Z,19.7
2019-05-21T20:26:25.653Z,19.5
2019-05-21T20:31:35.847Z,19.5
2019-05-21T20:36:45.643Z,19.4
2019-05-21T20:41:50.722Z,19
2019-05-21T20:46:55.726Z,18.9
2019-05-21T20:52:15.993Z,18.9
2019-05-21T20:53:13.973Z,18.9
2019-05-21T20:57:05.655Z,19
2019-05-21T21:02:15.690Z,18.8
2019-05-21T21:07:25.626Z,18.7
2019-05-21T21:12:30.627Z,18.5
2019-05-21T21:17:35.652Z,18.2
2019-05-21T21:22:40.652Z,18.1
2019-05-21T21:27:45.638Z,17.9
2019-05-21T21:32:50.644Z,17.8
2019-05-21T21:38:00.601Z,17.9
2019-05-21T21:43:10.584Z,17.8
2019-05-21T21:48:15.624Z,17.8
2019-05-21T21:53:20.631Z,18
2019-05-21T21:58:25.627Z,17.8
2019-05-21T22:03:30.580Z,18
2019-05-21T22:13:30.861Z,18.1
2019-05-21T22:18:35.860Z,18.1
2019-05-21T22:23:40.838Z,18
2019-05-21T22:28:50.905Z,18
2019-05-21T22:34:01.013Z,18
2019-05-21T22:39:05.855Z,17.9
2019-05-21T22:44:10.836Z,17.9
2019-05-21T22:49:15.911Z,17.8
2019-05-21T22:54:20.817Z,17.9
2019-05-21T22:59:40.931Z,17.8
2019-05-21T23:04:55.835Z,17.7
2019-05-21T23:10:05.793Z,17.7
2019-05-21T23:15:24.723Z,17.7
2019-05-21T23:16:25.141Z,17.7
2019-05-21T23:20:20.794Z,17.6
2019-05-21T23:25:25.799Z,17.6
2019-05-21T23:30:30.822Z,17.6
2019-05-21T23:35:35.821Z,17.6
2019-05-21T23:40:45.922Z,17.5
2019-05-21T23:45:55.840Z,17.5
2019-05-21T23:51:00.871Z,17.4
2019-05-21T23:56:05.791Z,17.2
